Tims Ford Observed Data For Previous 48 Hours

Caption
Day and Hour Reservoir Elevation (behind dam)* Tailwater Elevation (below dam)* Average Hourly Discharge*
11/17/2017 1 AM CST 880.29 743.73 240
11/17/2017 2 AM CST 880.31 743.64 240
11/17/2017 3 AM CST 880.30 743.64 240
11/17/2017 4 AM CST 880.31 743.64 240
11/17/2017 5 AM CST 880.32 745.86 675
11/17/2017 6 AM CST 880.28 749.78 3,816
11/17/2017 7 AM CST 880.27 749.93 3,799
11/17/2017 8 AM CST 880.23 749.98 3,813
11/17/2017 9 AM CST 880.20 750.00 3,805
11/17/2017 10 AM CST 880.18 750.01 3,815
11/17/2017 11 AM CST 880.15 750.03 3,811
11/17/2017 12 PM CST 880.16 744.50 382
11/17/2017 1 PM CST 880.14 743.73 240
11/17/2017 2 PM CST 880.15 743.63 240
11/17/2017 3 PM CST 880.16 743.63 240
11/17/2017 4 PM CST 880.16 743.63 240
11/17/2017 5 PM CST 880.16 743.82 240
11/17/2017 6 PM CST 880.15 749.71 3,557
11/17/2017 7 PM CST 880.10 749.91 3,811
11/17/2017 8 PM CST 880.08 750.00 3,822
11/17/2017 9 PM CST 880.08 744.40 369
11/17/2017 10 PM CST 880.07 743.69 240
11/17/2017 11 PM CST 880.07 743.62 240
11/18/2017 12 AM CST 880.08 743.61 240
11/18/2017 1 AM CST 880.10 743.61 240
11/18/2017 2 AM CST 880.10 743.61 240
11/18/2017 3 AM CST 880.10 743.58 240
11/18/2017 4 AM CST 880.10 743.60 240
11/18/2017 5 AM CST 880.10 743.60 240
11/18/2017 6 AM CST 880.10 743.60 240
11/18/2017 7 AM CST 880.10 743.76 240
11/18/2017 8 AM CST 880.09 749.73 3,549
11/18/2017 9 AM CST 880.05 749.92 3,800
11/18/2017 10 AM CST 880.01 749.98 3,802
11/18/2017 11 AM CST 880.02 744.39 376
11/18/2017 12 PM CST 880.00 743.69 240
11/18/2017 1 PM CST 880.03 743.61 240
11/18/2017 2 PM CST 880.05 743.60 240
11/18/2017 3 PM CST 880.03 743.61 240
11/18/2017 4 PM CST 880.00 743.78 240
11/18/2017 5 PM CST 880.04 749.74 3,562
11/18/2017 6 PM CST 879.97 749.95 3,811
11/18/2017 7 PM CST 879.95 750.02 3,830
11/18/2017 8 PM CST 879.95 744.43 393
11/18/2017 9 PM CST 879.99 743.70 240
11/18/2017 10 PM CST 880.01 743.62 240
11/18/2017 11 PM CST 879.95 743.62 240
11/19/2017 12 AM CST 880.00 743.61 240
11/19/2017 1 AM CST 880.01 743.60 240
11/19/2017 2 AM CST 879.99 743.61 240

Elevations are in feet above sea level. Discharges are in cubic feet per second and are reported at the end of the hour.